sensor_id;sensor_type;location;lat;lon;timestamp;P1;P2;P0
44933;PMS3003;30667;43.614;1.442;2023-08-06T00:01:37;3.00;3.00;1.00
44933;PMS3003;30667;43.614;1.442;2023-08-06T00:04:02;7.25;6.00;1.25
44933;PMS3003;30667;43.614;1.442;2023-08-06T00:06:28;4.50;4.50;2.00
44933;PMS3003;30667;43.614;1.442;2023-08-06T00:08:53;5.50;5.00;2.00
44933;PMS3003;30667;43.614;1.442;2023-08-06T00:11:20;4.00;3.60;1.00
44933;PMS3003;30667;43.614;1.442;2023-08-06T00:13:45;6.25;4.00;2.00
44933;PMS3003;30667;43.614;1.442;2023-08-06T00:16:11;4.00;4.00;1.00
44933;PMS3003;30667;43.614;1.442;2023-08-06T00:18:38;5.00;4.60;1.20
44933;PMS3003;30667;43.614;1.442;2023-08-06T00:21:04;4.00;4.00;2.00
44933;PMS3003;30667;43.614;1.442;2023-08-06T00:23:30;3.50;3.50;1.00
44933;PMS3003;30667;43.614;1.442;2023-08-06T00:25:55;4.00;4.00;1.25
44933;PMS3003;30667;43.614;1.442;2023-08-06T00:28:21;5.75;5.00;1.25
44933;PMS3003;30667;43.614;1.442;2023-08-06T00:30:51;4.00;3.50;1.00
44933;PMS3003;30667;43.614;1.442;2023-08-06T00:33:17;4.40;4.00;1.20
44933;PMS3003;30667;43.614;1.442;2023-08-06T00:35:43;4.00;4.00;1.00
44933;PMS3003;30667;43.614;1.442;2023-08-06T00:38:08;5.00;5.00;2.00
44933;PMS3003;30667;43.614;1.442;2023-08-06T00:40:34;4.75;4.25;1.75
44933;PMS3003;30667;43.614;1.442;2023-08-06T00:42:59;5.00;4.00;2.00
44933;PMS3003;30667;43.614;1.442;2023-08-06T00:45:25;5.00;4.00;2.00
44933;PMS3003;30667;43.614;1.442;2023-08-06T00:47:51;4.40;3.80;1.00
44933;PMS3003;30667;43.614;1.442;2023-08-06T00:50:17;5.20;5.20;2.20
44933;PMS3003;30667;43.614;1.442;2023-08-06T00:52:43;4.00;4.00;1.00
44933;PMS3003;30667;43.614;1.442;2023-08-06T00:55:08;4.25;4.00;1.50
44933;PMS3003;30667;43.614;1.442;2023-08-06T00:57:35;6.00;6.00;2.00
44933;PMS3003;30667;43.614;1.442;2023-08-06T01:00:00;6.00;5.00;2.00
44933;PMS3003;30667;43.614;1.442;2023-08-06T01:02:26;5.25;4.00;1.00
44933;PMS3003;30667;43.614;1.442;2023-08-06T01:04:52;4.00;3.00;0.00
44933;PMS3003;30667;43.614;1.442;2023-08-06T01:12:59;4.00;3.00;1.00
44933;PMS3003;30667;43.614;1.442;2023-08-06T01:15:38;3.00;3.00;0.40
44933;PMS3003;30667;43.614;1.442;2023-08-06T01:18:08;6.00;4.60;1.60
44933;PMS3003;30667;43.614;1.442;2023-08-06T01:20:35;5.00;3.80;1.00
44933;PMS3003;30667;43.614;1.442;2023-08-06T01:23:00;4.00;3.75;1.75
44933;PMS3003;30667;43.614;1.442;2023-08-06T01:25:30;4.50;3.50;1.00
44933;PMS3003;30667;43.614;1.442;2023-08-06T01:28:04;6.20;4.00;1.00
44933;PMS3003;30667;43.614;1.442;2023-08-06T01:30:33;4.60;3.40;1.00
44933;PMS3003;30667;43.614;1.442;2023-08-06T01:33:05;3.00;3.00;0.40
44933;PMS3003;30667;43.614;1.442;2023-08-06T01:35:34;5.80;3.00;0.80
44933;PMS3003;30667;43.614;1.442;2023-08-06T01:38:02;4.80;4.00;1.00
44933;PMS3003;30667;43.614;1.442;2023-08-06T01:40:28;3.00;3.00;0.60
44933;PMS3003;30667;43.614;1.442;2023-08-06T01:42:54;4.20;3.00;0.40
44933;PMS3003;30667;43.614;1.442;2023-08-06T01:45:20;5.25;4.00;1.00
44933;PMS3003;30667;43.614;1.442;2023-08-06T01:47:45;2.25;2.25;0.00
44933;PMS3003;30667;43.614;1.442;2023-08-06T01:50:11;3.50;3.50;1.00
44933;PMS3003;30667;43.614;1.442;2023-08-06T01:52:36;4.75;3.50;1.00
44933;PMS3003;30667;43.614;1.442;2023-08-06T01:55:02;5.00;4.25;1.00
44933;PMS3003;30667;43.614;1.442;2023-08-06T01:57:28;4.50;3.00;1.00
44933;PMS3003;30667;43.614;1.442;2023-08-06T01:59:53;4.20;3.40;0.60
44933;PMS3003;30667;43.614;1.442;2023-08-06T02:02:19;4.00;3.00;1.00
44933;PMS3003;30667;43.614;1.442;2023-08-06T02:04:44;4.25;3.50;1.00
44933;PMS3003;30667;43.614;1.442;2023-08-06T02:07:10;5.75;3.00;0.75
44933;PMS3003;30667;43.614;1.442;2023-08-06T02:09:35;4.25;3.00;0.00
44933;PMS3003;30667;43.614;1.442;2023-08-06T02:12:01;2.50;2.50;0.00
44933;PMS3003;30667;43.614;1.442;2023-08-06T02:14:27;4.20;3.40;0.00
44933;PMS3003;30667;43.614;1.442;2023-08-06T02:16:52;4.25;4.00;0.00
44933;PMS3003;30667;43.614;1.442;2023-08-06T02:19:18;3.75;3.75;0.00
44933;PMS3003;30667;43.614;1.442;2023-08-06T02:21:43;4.25;2.25;0.00
44933;PMS3003;30667;43.614;1.442;2023-08-06T02:24:08;3.00;2.50;0.00
44933;PMS3003;30667;43.614;1.442;2023-08-06T02:26:34;5.00;3.00;0.00
44933;PMS3003;30667;43.614;1.442;2023-08-06T02:28:59;4.00;3.00;0.50
44933;PMS3003;30667;43.614;1.442;2023-08-06T02:31:25;4.75;4.00;0.50
44933;PMS3003;30667;43.614;1.442;2023-08-06T02:33:50;4.25;3.50;1.00
44933;PMS3003;30667;43.614;1.442;2023-08-06T02:36:15;5.00;3.75;0.00
44933;PMS3003;30667;43.614;1.442;2023-08-06T02:38:41;3.50;3.50;0.00
44933;PMS3003;30667;43.614;1.442;2023-08-06T02:41:06;3.25;3.00;0.00
44933;PMS3003;30667;43.614;1.442;2023-08-06T02:43:31;2.50;2.50;0.25
44933;PMS3003;30667;43.614;1.442;2023-08-06T02:45:57;4.00;3.50;0.25
44933;PMS3003;30667;43.614;1.442;2023-08-06T02:48:23;2.60;2.60;0.00
44933;PMS3003;30667;43.614;1.442;2023-08-06T02:50:49;3.50;2.00;0.25
44933;PMS3003;30667;43.614;1.442;2023-08-06T02:53:14;4.75;3.00;0.25
44933;PMS3003;30667;43.614;1.442;2023-08-06T02:55:44;4.25;3.50;0.25
44933;PMS3003;30667;43.614;1.442;2023-08-06T02:58:13;5.40;3.00;0.00
44933;PMS3003;30667;43.614;1.442;2023-08-06T03:00:42;4.00;2.80;0.00
44933;PMS3003;30667;43.614;1.442;2023-08-06T03:03:08;4.00;3.00;0.00
44933;PMS3003;30667;43.614;1.442;2023-08-06T03:05:34;3.40;3.00;0.80
44933;PMS3003;30667;43.614;1.442;2023-08-06T03:07:59;4.00;2.50;0.00
44933;PMS3003;30667;43.614;1.442;2023-08-06T03:10:25;4.00;3.00;0.00
44933;PMS3003;30667;43.614;1.442;2023-08-06T03:12:51;5.00;3.00;0.00
44933;PMS3003;30667;43.614;1.442;2023-08-06T03:15:16;3.25;2.50;0.00
44933;PMS3003;30667;43.614;1.442;2023-08-06T03:17:42;2.00;1.75;0.00
44933;PMS3003;30667;43.614;1.442;2023-08-06T03:20:09;3.00;2.60;0.00
44933;PMS3003;30667;43.614;1.442;2023-08-06T03:22:35;4.40;3.00;0.00
44933;PMS3003;30667;43.614;1.442;2023-08-06T03:25:00;2.75;2.75;0.00
44933;PMS3003;30667;43.614;1.442;2023-08-06T03:27:25;4.00;2.00;0.00
44933;PMS3003;30667;43.614;1.442;2023-08-06T03:29:51;5.75;4.00;0.75
44933;PMS3003;30667;43.614;1.442;2023-08-06T03:32:16;6.00;3.00;0.00
44933;PMS3003;30667;43.614;1.442;2023-08-06T03:34:42;3.00;2.75;0.00
44933;PMS3003;30667;43.614;1.442;2023-08-06T03:37:07;3.00;2.50;0.00
44933;PMS3003;30667;43.614;1.442;2023-08-06T03:39:33;2.25;2.00;0.00
44933;PMS3003;30667;43.614;1.442;2023-08-06T03:41:58;3.25;1.75;0.00
44933;PMS3003;30667;43.614;1.442;2023-08-06T03:44:24;4.00;3.00;0.00
44933;PMS3003;30667;43.614;1.442;2023-08-06T03:46:49;3.25;3.00;0.00
44933;PMS3003;30667;43.614;1.442;2023-08-06T03:49:14;5.25;3.25;0.00
44933;PMS3003;30667;43.614;1.442;2023-08-06T03:51:40;2.00;2.00;0.00
44933;PMS3003;30667;43.614;1.442;2023-08-06T03:54:05;2.00;1.50;0.00
44933;PMS3003;30667;43.614;1.442;2023-08-06T03:56:31;5.75;3.00;0.00
44933;PMS3003;30667;43.614;1.442;2023-08-06T03:58:56;2.25;2.00;0.00
44933;PMS3003;30667;43.614;1.442;2023-08-06T04:01:22;3.50;3.00;1.00
44933;PMS3003;30667;43.614;1.442;2023-08-06T04:03:47;5.00;3.50;0.00
44933;PMS3003;30667;43.614;1.442;2023-08-06T04:06:12;4.00;3.00;0.00
44933;PMS3003;30667;43.614;1.442;2023-08-06T04:08:38;3.00;3.00;0.50
44933;PMS3003;30667;43.614;1.442;2023-08-06T04:11:03;3.50;3.00;0.75
44933;PMS3003;30667;43.614;1.442;2023-08-06T04:13:32;4.50;4.00;0.00
44933;PMS3003;30667;43.614;1.442;2023-08-06T04:16:01;3.80;3.20;0.00
44933;PMS3003;30667;43.614;1.442;2023-08-06T04:18:30;4.80;4.00;0.00
44933;PMS3003;30667;43.614;1.442;2023-08-06T04:20:55;4.75;3.00;0.75
44933;PMS3003;30667;43.614;1.442;2023-08-06T04:23:22;3.80;2.40;0.00
44933;PMS3003;30667;43.614;1.442;2023-08-06T04:28:48;3.40;3.00;0.00
44933;PMS3003;30667;43.614;1.442;2023-08-06T04:31:39;4.80;3.40;0.00
44933;PMS3003;30667;43.614;1.442;2023-08-06T04:34:05;4.00;3.00;0.20
44933;PMS3003;30667;43.614;1.442;2023-08-06T04:36:33;5.00;4.00;1.00
44933;PMS3003;30667;43.614;1.442;2023-08-06T04:45:28;3.80;3.00;0.00
44933;PMS3003;30667;43.614;1.442;2023-08-06T04:47:57;4.50;3.00;0.00
44933;PMS3003;30667;43.614;1.442;2023-08-06T04:50:22;4.00;3.40;0.00
44933;PMS3003;30667;43.614;1.442;2023-08-06T04:52:48;3.50;2.75;0.00
44933;PMS3003;30667;43.614;1.442;2023-08-06T04:55:16;6.00;5.00;0.50
44933;PMS3003;30667;43.614;1.442;2023-08-06T04:57:41;5.00;3.80;0.20
44933;PMS3003;30667;43.614;1.442;2023-08-06T05:00:07;5.00;3.00;0.00
44933;PMS3003;30667;43.614;1.442;2023-08-06T05:02:33;3.50;2.25;0.00
44933;PMS3003;30667;43.614;1.442;2023-08-06T05:04:59;4.60;3.80;0.20
44933;PMS3003;30667;43.614;1.442;2023-08-06T05:07:28;3.50;3.50;0.00
44933;PMS3003;30667;43.614;1.442;2023-08-06T05:09:53;6.00;3.00;0.60
44933;PMS3003;30667;43.614;1.442;2023-08-06T05:12:18;2.00;2.00;0.00
44933;PMS3003;30667;43.614;1.442;2023-08-06T05:14:44;3.00;2.25;0.00
44933;PMS3003;30667;43.614;1.442;2023-08-06T05:17:09;3.50;2.75;0.00
44933;PMS3003;30667;43.614;1.442;2023-08-06T05:19:35;3.00;3.00;0.00
44933;PMS3003;30667;43.614;1.442;2023-08-06T05:22:00;2.00;2.00;0.00
44933;PMS3003;30667;43.614;1.442;2023-08-06T05:24:27;2.20;2.20;0.00
44933;PMS3003;30667;43.614;1.442;2023-08-06T05:26:52;3.00;3.00;0.00
44933;PMS3003;30667;43.614;1.442;2023-08-06T05:29:17;3.75;2.00;0.00
44933;PMS3003;30667;43.614;1.442;2023-08-06T05:31:43;5.00;3.50;0.00
44933;PMS3003;30667;43.614;1.442;2023-08-06T05:34:08;3.00;2.00;1.00
44933;PMS3003;30667;43.614;1.442;2023-08-06T05:36:34;2.50;2.50;0.00
44933;PMS3003;30667;43.614;1.442;2023-08-06T05:38:59;2.00;1.75;0.00
44933;PMS3003;30667;43.614;1.442;2023-08-06T05:41:25;2.00;2.00;0.00
44933;PMS3003;30667;43.614;1.442;2023-08-06T05:43:50;4.00;2.50;0.00
44933;PMS3003;30667;43.614;1.442;2023-08-06T05:46:15;2.75;1.50;0.00
44933;PMS3003;30667;43.614;1.442;2023-08-06T05:48:41;2.00;1.50;0.00
44933;PMS3003;30667;43.614;1.442;2023-08-06T05:51:06;2.00;2.00;0.00
44933;PMS3003;30667;43.614;1.442;2023-08-06T05:53:32;2.20;1.60;0.00
44933;PMS3003;30667;43.614;1.442;2023-08-06T05:55:58;3.50;2.25;0.00
44933;PMS3003;30667;43.614;1.442;2023-08-06T05:58:23;4.25;3.25;0.00
44933;PMS3003;30667;43.614;1.442;2023-08-06T06:00:51;2.00;2.00;0.00
44933;PMS3003;30667;43.614;1.442;2023-08-06T06:03:16;2.50;2.50;0.00
44933;PMS3003;30667;43.614;1.442;2023-08-06T06:05:42;2.25;1.75;0.00
44933;PMS3003;30667;43.614;1.442;2023-08-06T06:08:07;2.00;2.00;0.00
44933;PMS3003;30667;43.614;1.442;2023-08-06T06:10:33;2.50;2.00;0.00
44933;PMS3003;30667;43.614;1.442;2023-08-06T06:12:58;1.75;1.50;0.00
44933;PMS3003;30667;43.614;1.442;2023-08-06T06:15:24;1.25;1.00;0.00
44933;PMS3003;30667;43.614;1.442;2023-08-06T06:17:49;3.00;2.00;0.00
44933;PMS3003;30667;43.614;1.442;2023-08-06T06:20:14;2.50;2.00;0.00
44933;PMS3003;30667;43.614;1.442;2023-08-06T06:22:40;5.00;4.25;0.00
